Time;durP1;ratioP1;P1;durP2;ratioP2;P2;SDS_P1;SDS_P2;PMS_P1;PMS_P2;Temp;Humidity;BMP_temperature;BMP_pressure;BME280_temperature;BME280_humidity;BME280_pressure;Samples;Min_cycle;Max_cycle;Signal;HPM_P1;HPM_P2
2023/10/01 00:00:15;;;;;;;16.95;9.30;;;14.40;99.90;;;;;;4927734;29;20535;-96
2023/10/01 00:03:10;;;;;;;;;;;;;;;;;;;;;
2023/10/01 00:05:52;;;;;;;18.25;8.82;;;14.80;99.90;;;;;;4950686;29;20059;-96
2023/10/01 00:08:18;;;;;;;17.58;9.20;;;14.80;99.90;;;;;;4956003;29;20126;-96
2023/10/01 00:11:05;;;;;;;17.60;9.50;;;15.10;99.90;;;;;;4952957;29;20047;-96
2023/10/01 00:13:35;;;;;;;17.67;9.13;;;15.30;99.90;;;;;;4986755;28;20066;-96
2023/10/01 00:23:29;;;;;;;17.92;9.68;;;14.60;99.90;;;;;;4977470;28;20067;-96
2023/10/01 00:29:52;;;;;;;17.15;9.75;;;14.40;99.90;;;;;;4974360;29;20042;-96
2023/10/01 00:32:18;;;;;;;18.40;10.27;;;15.50;99.90;;;;;;4959606;28;20039;-96
2023/10/01 00:34:57;;;;;;;19.98;10.27;;;15.50;99.90;;;;;;4966138;28;20023;-96
2023/10/01 00:37:24;;;;;;;20.95;9.95;;;14.60;99.90;;;;;;4966556;28;20027;-96
2023/10/01 00:39:56;;;;;;;19.30;10.45;;;14.30;99.90;;;;;;4995491;28;20043;-96
2023/10/01 00:43:00;;;;;;;17.95;9.40;;;14.30;99.90;;;;;;4967763;23;20063;-96
2023/10/01 00:45:26;;;;;;;18.58;10.20;;;14.10;99.90;;;;;;4914758;29;20124;-96
2023/10/01 00:48:06;;;;;;;19.30;9.77;;;14.30;99.90;;;;;;4915296;29;20595;-96
2023/10/01 00:50:47;;;;;;;18.52;10.38;;;14.30;99.90;;;;;;4915571;29;20089;-96
2023/10/01 00:53:36;;;;;;;19.00;10.15;;;14.30;99.90;;;;;;4919382;29;20157;-96
2023/10/01 00:59:25;;;;;;;17.60;9.40;;;14.50;99.90;;;;;;4908241;29;20048;-96
2023/10/01 01:02:15;;;;;;;20.30;9.93;;;14.20;99.90;;;;;;4916913;29;20038;-96
2023/10/01 01:07:40;;;;;;;19.63;9.90;;;14.10;99.90;;;;;;4953304;29;20044;-96
2023/10/01 01:10:31;;;;;;;17.67;9.73;;;14.00;99.90;;;;;;4919936;29;20083;-96
2023/10/01 01:13:33;;;;;;;17.48;9.70;;;14.00;99.90;;;;;;4924086;29;20041;-96
2023/10/01 01:16:19;;;;;;;17.35;9.65;;;13.50;99.90;;;;;;4925907;29;20124;-96
2023/10/01 01:19:29;;;;;;;;;;;14.00;99.90;;;;;;4908074;29;20046;-96
2023/10/01 01:21:56;;;;;;;19.50;9.75;;;14.10;99.90;;;;;;4920125;29;19919;-96
2023/10/01 01:24:38;;;;;;;20.23;9.85;;;14.00;99.90;;;;;;4925445;29;20052;-96
2023/10/01 01:27:08;;;;;;;16.48;9.32;;;15.00;99.90;;;;;;4916787;29;20058;-96
2023/10/01 01:32:24;;;;;;;19.33;10.25;;;14.00;99.90;;;;;;5049037;23;20117;-96
2023/10/01 01:38:20;;;;;;;19.90;10.23;;;13.80;99.90;;;;;;4914664;29;20047;-96
2023/10/01 01:40:52;;;;;;;17.58;10.30;;;14.00;99.90;;;;;;4897429;29;20044;-96
2023/10/01 01:43:39;;;;;;;18.75;10.07;;;14.00;99.90;;;;;;4946873;28;20059;-96
2023/10/01 01:46:20;;;;;;;17.95;10.80;;;15.10;99.90;;;;;;4957677;29;20031;-96
2023/10/01 01:49:58;;;;;;;;;;;;;;;;;;;;;
2023/10/01 01:56:19;;;;;;;19.48;11.02;;;14.10;99.90;;;;;;4961514;28;20042;-96
2023/10/01 01:59:13;;;;;;;18.52;11.13;;;14.70;99.90;;;;;;4955380;29;20052;-96
2023/10/01 02:01:49;;;;;;;20.50;11.68;;;14.90;99.90;;;;;;4944079;29;20052;-96
2023/10/01 02:04:25;;;;;;;18.88;11.30;;;14.00;99.90;;;;;;4949651;29;20511;-96
2023/10/01 02:06:52;;;;;;;21.42;12.50;;;14.00;99.90;;;;;;4951784;29;20099;-96
2023/10/01 02:09:37;;;;;;;19.67;12.05;;;14.50;99.90;;;;;;4946784;29;20137;-96
2023/10/01 02:12:24;;;;;;;21.30;12.38;;;14.10;99.90;;;;;;4952473;23;20051;-96
2023/10/01 02:15:13;;;;;;;20.52;11.77;;;14.00;99.90;;;;;;4928779;29;20048;-96
2023/10/01 02:20:56;;;;;;;22.95;12.98;;;14.10;99.90;;;;;;5143801;23;20059;-96
2023/10/01 02:23:44;;;;;;;21.63;12.07;;;13.80;99.90;;;;;;4941251;29;20032;-96
2023/10/01 02:26:27;;;;;;;24.08;13.32;;;14.10;99.90;;;;;;4937789;29;20047;-96
2023/10/01 02:28:54;;;;;;;20.83;12.68;;;14.50;99.90;;;;;;4936881;29;20043;-96
2023/10/01 02:32:04;;;;;;;20.75;12.27;;;14.20;99.90;;;;;;4943108;28;20063;-96
2023/10/01 02:34:43;;;;;;;21.73;13.10;;;14.20;99.90;;;;;;4936244;29;20094;-96
2023/10/01 02:37:35;;;;;;;20.23;12.68;;;14.10;99.90;;;;;;4938744;29;20036;-96
2023/10/01 02:42:50;;;;;;;22.58;12.40;;;13.90;99.90;;;;;;4944948;29;20047;-96
2023/10/01 02:45:44;;;;;;;22.85;12.95;;;14.20;99.90;;;;;;4969303;29;20048;-96
2023/10/01 02:51:14;;;;;;;21.05;12.50;;;14.20;99.90;;;;;;4939662;29;20036;-96
2023/10/01 02:59:28;;;;;;;23.17;12.60;;;14.50;99.90;;;;;;4936531;29;20051;-96
2023/10/01 03:02:16;;;;;;;21.98;12.73;;;14.30;99.90;;;;;;4933244;29;20048;-96
2023/10/01 03:05:08;;;;;;;21.05;12.85;;;14.10;99.90;;;;;;4967408;29;20047;-96
2023/10/01 03:07:42;;;;;;;22.33;12.90;;;13.80;99.90;;;;;;4938896;29;20043;-96
2023/10/01 03:13:30;;;;;;;24.35;13.18;;;14.30;99.90;;;;;;4934065;29;20048;-96
2023/10/01 03:19:34;;;;;;;21.98;13.23;;;14.20;99.90;;;;;;4932744;29;20067;-96
2023/10/01 03:22:27;;;;;;;22.20;12.43;;;14.20;99.90;;;;;;4927895;29;20051;-96
2023/10/01 03:25:12;;;;;;;20.65;12.80;;;14.20;99.90;;;;;;4939810;28;20034;-96
2023/10/01 03:27:47;;;;;;;22.17;12.88;;;14.20;99.90;;;;;;4969495;28;20028;-96
2023/10/01 03:30:32;;;;;;;19.13;12.38;;;14.10;99.90;;;;;;4943916;28;20028;-96
2023/10/01 03:33:08;;;;;;;21.60;12.63;;;13.80;99.90;;;;;;4976502;28;20027;-96
2023/10/01 03:36:12;;;;;;;22.10;12.25;;;14.20;99.90;;;;;;4941742;29;20031;-94
2023/10/01 03:38:50;;;;;;;19.73;11.95;;;13.70;99.90;;;;;;4931775;29;20048;-96
2023/10/01 03:47:41;;;;;;;19.88;12.40;;;14.20;99.90;;;;;;4921518;29;20051;-96
2023/10/01 03:50:09;;;;;;;24.08;12.40;;;14.20;99.90;;;;;;4895863;29;20047;-96
2023/10/01 03:52:54;;;;;;;21.35;11.90;;;14.20;99.90;;;;;;4937741;29;20043;-96
2023/10/01 03:55:39;;;;;;;19.30;12.38;;;14.20;99.90;;;;;;4926646;29;20107;-96
2023/10/01 03:58:26;;;;;;;18.88;11.52;;;15.10;99.90;;;;;;4937355;29;20047;-96
2023/10/01 04:01:15;;;;;;;22.13;11.77;;;14.20;99.90;;;;;;4960227;29;20075;-96
2023/10/01 04:04:11;;;;;;;20.33;11.90;;;14.00;99.90;;;;;;4926913;29;20047;-96
2023/10/01 04:06:38;;;;;;;19.58;11.18;;;15.40;99.90;;;;;;4929841;29;20052;-96
2023/10/01 04:09:18;;;;;;;20.75;11.63;;;14.20;99.90;;;;;;4930699;29;20419;-96
2023/10/01 04:15:07;;;;;;;20.42;11.15;;;14.30;99.90;;;;;;4945001;29;20066;-96
2023/10/01 04:18:09;;;;;;;18.20;10.50;;;14.30;99.90;;;;;;4928074;29;20075;-96
2023/10/01 04:23:47;;;;;;;20.98;11.13;;;14.20;99.90;;;;;;4926684;29;20091;-96
2023/10/01 04:26:19;;;;;;;18.08;10.43;;;14.30;99.90;;;;;;4913830;29;20050;-96
2023/10/01 04:31:55;;;;;;;18.85;9.60;;;15.60;99.90;;;;;;4965288;29;20143;-96
2023/10/01 04:34:29;;;;;;;18.75;10.68;;;14.40;99.90;;;;;;4953396;29;20052;-96
2023/10/01 04:36:55;;;;;;;18.40;9.43;;;14.50;99.90;;;;;;4933145;29;20050;-96
2023/10/01 04:39:22;;;;;;;19.92;9.27;;;14.30;99.90;;;;;;4931223;29;20044;-96
2023/10/01 04:41:59;;;;;;;19.27;10.10;;;14.40;99.90;;;;;;4962976;29;20067;-96
2023/10/01 04:44:56;;;;;;;18.85;9.65;;;14.30;99.90;;;;;;4933962;29;20051;-96
2023/10/01 04:47:31;;;;;;;19.77;9.88;;;13.40;99.90;;;;;;4966234;29;20047;-96
2023/10/01 04:49:57;;;;;;;18.10;9.13;;;14.40;99.90;;;;;;4933444;29;20040;-96
2023/10/01 04:52:37;;;;;;;17.58;9.10;;;14.40;99.90;;;;;;4943592;28;20031;-96
2023/10/01 04:55:08;;;;;;;16.38;9.35;;;14.30;99.90;;;;;;4960958;28;20075;-96
2023/10/01 04:57:52;;;;;;;18.80;9.43;;;14.40;99.90;;;;;;4941558;29;20043;-96
2023/10/01 05:00:25;;;;;;;18.42;9.38;;;14.20;99.90;;;;;;4941017;28;20042;-96
2023/10/01 05:02:52;;;;;;;16.40;9.50;;;14.30;99.90;;;;;;4967123;28;20055;-96
2023/10/01 05:17:16;;;;;;;18.25;8.63;;;14.10;99.90;;;;;;4957943;28;20035;-95
2023/10/01 05:20:08;;;;;;;20.40;9.07;;;13.70;99.90;;;;;;4979095;28;20102;-96
2023/10/01 05:22:46;;;;;;;15.73;8.32;;;14.00;99.90;;;;;;4998844;23;20067;-96
2023/10/01 05:25:45;;;;;;;16.40;8.65;;;14.30;99.90;;;;;;4954901;29;20039;-96
2023/10/01 05:28:23;;;;;;;17.60;8.55;;;15.20;99.90;;;;;;4930506;29;20048;-96
2023/10/01 05:30:58;;;;;;;16.77;8.15;;;14.40;99.90;;;;;;4937230;29;20086;-96
2023/10/01 05:33:24;;;;;;;16.90;8.30;;;14.70;99.90;;;;;;4934474;29;20044;-96
2023/10/01 05:36:05;;;;;;;17.38;8.02;;;15.20;99.90;;;;;;4936772;29;20036;-96
2023/10/01 05:38:53;;;;;;;15.65;7.35;;;14.40;99.90;;;;;;4935059;29;20054;-96
2023/10/01 05:41:44;;;;;;;17.25;7.72;;;14.50;99.90;;;;;;4935391;29;20051;-96
2023/10/01 05:44:11;;;;;;;17.73;8.13;;;14.50;99.90;;;;;;4932033;29;20130;-96
2023/10/01 05:46:54;;;;;;;18.55;7.68;;;14.50;99.90;;;;;;4933193;29;20075;-96
2023/10/01 05:49:20;;;;;;;16.38;7.53;;;15.60;99.90;;;;;;4933810;29;20058;-96
2023/10/01 05:51:50;;;;;;;17.30;8.23;;;14.60;99.90;;;;;;4931915;29;20052;-96
2023/10/01 05:54:21;;;;;;;16.63;7.88;;;15.40;99.90;;;;;;4929548;29;20047;-96
2023/10/01 05:57:09;;;;;;;16.58;8.27;;;14.70;99.90;;;;;;4926637;29;20044;-96
2023/10/01 06:05:22;;;;;;;22.23;8.95;;;14.70;99.90;;;;;;4958552;29;20503;-96
2023/10/01 06:07:55;;;;;;;16.83;8.98;;;14.70;99.90;;;;;;4944683;29;20059;-96
2023/10/01 06:10:36;;;;;;;18.63;8.48;;;14.50;99.90;;;;;;4945897;29;20047;-90
2023/10/01 06:13:06;;;;;;;17.67;8.35;;;14.60;99.90;;;;;;4939958;28;20051;-87
2023/10/01 06:15:33;;;;;;;20.15;8.93;;;15.40;99.90;;;;;;4956886;29;20047;-86
2023/10/01 06:18:15;;;;;;;18.10;8.80;;;14.50;99.90;;;;;;4938705;29;20050;-86
2023/10/01 06:20:42;;;;;;;19.88;8.80;;;14.50;99.90;;;;;;4938900;29;20039;-87
2023/10/01 06:23:07;;;;;;;18.77;8.45;;;14.60;99.90;;;;;;4976966;28;20054;-86
2023/10/01 06:25:43;;;;;;;18.13;8.85;;;14.80;99.90;;;;;;4958820;28;20042;-87
2023/10/01 06:28:09;;;;;;;21.65;9.30;;;14.50;99.90;;;;;;4927145;29;20492;-87
2023/10/01 06:30:43;;;;;;;20.05;9.02;;;14.50;99.90;;;;;;4920842;29;20039;-87
2023/10/01 06:33:24;;;;;;;17.17;8.45;;;14.50;99.90;;;;;;4921467;29;20110;-87
2023/10/01 06:38:38;;;;;;;18.58;8.63;;;15.10;99.90;;;;;;4919162;29;20491;-87
2023/10/01 06:41:06;;;;;;;18.23;8.48;;;14.60;99.90;;;;;;4920823;29;20134;-87
2023/10/01 06:43:32;;;;;;;16.67;8.43;;;14.60;99.90;;;;;;4922419;29;20064;-88
2023/10/01 06:46:03;;;;;;;17.17;8.65;;;14.60;99.90;;;;;;4936627;29;20554;-88
2023/10/01 06:48:31;;;;;;;18.83;8.50;;;14.60;99.90;;;;;;4919793;29;20048;-87
2023/10/01 06:50:59;;;;;;;17.42;9.02;;;14.60;99.90;;;;;;4919906;29;20098;-88
2023/10/01 06:53:43;;;;;;;18.38;8.73;;;14.70;99.90;;;;;;4919544;29;20054;-88
2023/10/01 06:56:09;;;;;;;19.33;9.10;;;14.90;99.90;;;;;;4919395;29;20056;-88
2023/10/01 06:58:35;;;;;;;18.88;9.18;;;14.60;99.90;;;;;;4919793;29;20400;-86
2023/10/01 07:03:55;;;;;;;17.45;8.73;;;15.00;99.90;;;;;;4905028;29;20093;-86
2023/10/01 07:06:22;;;;;;;19.98;9.05;;;14.60;99.90;;;;;;4927253;29;20076;-86
2023/10/01 07:08:47;;;;;;;20.63;9.05;;;14.60;99.90;;;;;;4897058;29;20053;-87
2023/10/01 07:11:18;;;;;;;18.10;9.18;;;14.60;99.90;;;;;;4928184;29;20049;-86
2023/10/01 07:13:44;;;;;;;18.17;9.10;;;14.60;99.90;;;;;;4896167;29;20140;-84
2023/10/01 07:16:17;;;;;;;18.98;9.57;;;14.60;99.90;;;;;;4896903;29;20459;-86
2023/10/01 07:18:44;;;;;;;23.77;10.13;;;14.70;99.90;;;;;;4897151;29;20048;-86
2023/10/01 07:21:11;;;;;;;17.05;8.80;;;14.60;99.90;;;;;;4895940;29;20044;-86
2023/10/01 07:31:13;;;;;;;18.70;9.38;;;14.50;99.90;;;;;;4840305;29;20086;-86
2023/10/01 07:33:38;;;;;;;20.65;9.35;;;14.40;99.90;;;;;;4824753;29;20050;-86
2023/10/01 07:38:48;;;;;;;18.63;8.73;;;14.50;99.90;;;;;;5457641;23;20508;-86
2023/10/01 07:41:20;;;;;;;20.00;8.85;;;14.50;99.90;;;;;;4937348;29;20058;-87
2023/10/01 07:43:46;;;;;;;19.85;9.73;;;14.90;99.90;;;;;;4980691;28;20044;-86
2023/10/01 07:46:14;;;;;;;18.63;9.05;;;14.60;99.90;;;;;;4941060;29;20518;-85
2023/10/01 07:48:46;;;;;;;18.90;8.88;;;14.70;99.90;;;;;;4979903;28;20054;-84
2023/10/01 07:51:22;;;;;;;18.60;8.85;;;14.70;99.90;;;;;;4937518;29;20055;-85
2023/10/01 07:53:51;;;;;;;17.80;8.85;;;14.80;99.90;;;;;;4975246;28;20130;-85
2023/10/01 07:56:21;;;;;;;18.90;8.18;;;14.90;99.90;;;;;;4933796;29;20051;-86
2023/10/01 07:58:57;;;;;;;16.65;8.75;;;14.90;99.90;;;;;;4965875;28;20047;-85
2023/10/01 08:01:36;;;;;;;18.15;8.23;;;15.00;99.90;;;;;;4933230;29;20056;-83
2023/10/01 08:04:19;;;;;;;17.58;8.15;;;15.10;99.90;;;;;;4933240;29;20052;-86
2023/10/01 08:06:48;;;;;;;15.13;7.45;;;15.20;99.90;;;;;;4965904;28;20050;-86
2023/10/01 08:09:15;;;;;;;18.85;8.02;;;15.20;99.90;;;;;;4918493;29;20047;-85
2023/10/01 08:11:58;;;;;;;21.02;8.45;;;15.60;99.90;;;;;;4933810;29;20054;-85
2023/10/01 08:14:33;;;;;;;18.80;7.90;;;15.50;99.90;;;;;;4920628;29;20098;-86
2023/10/01 08:17:02;;;;;;;18.95;7.55;;;15.60;99.90;;;;;;4965218;28;20043;-89
2023/10/01 08:19:45;;;;;;;18.52;8.05;;;15.70;99.90;;;;;;4964814;28;20517;-89
2023/10/01 08:22:15;;;;;;;15.30;7.00;;;15.80;99.90;;;;;;4923621;29;20048;-88
2023/10/01 08:24:45;;;;;;;15.75;7.50;;;15.80;99.90;;;;;;4965428;28;20380;-88
2023/10/01 08:27:29;;;;;;;15.13;7.35;;;15.90;99.90;;;;;;4918934;29;20083;-88
2023/10/01 08:32:38;;;;;;;16.88;6.80;;;16.00;99.90;;;;;;4426003;23;20059;-88
2023/10/01 08:35:22;;;;;;;15.52;6.88;;;16.10;99.90;;;;;;4933613;29;20055;-89
2023/10/01 08:37:49;;;;;;;18.50;7.53;;;16.10;99.90;;;;;;4935821;29;20071;-88
2023/10/01 08:40:17;;;;;;;16.67;6.80;;;16.20;99.90;;;;;;4936317;29;20052;-88
2023/10/01 08:42:47;;;;;;;18.08;7.28;;;16.20;99.90;;;;;;4937535;29;20058;-88
2023/10/01 08:45:17;;;;;;;15.43;7.35;;;16.20;99.90;;;;;;4968592;28;20478;-87
2023/10/01 08:47:47;;;;;;;15.93;6.78;;;16.30;99.90;;;;;;4936568;29;20102;-87
2023/10/01 08:53:36;;;;;;;15.52;6.65;;;16.40;99.90;;;;;;4936732;29;20119;-87
2023/10/01 08:58:25;;;;;;;16.27;6.75;;;16.40;99.90;;;;;;4936801;29;20404;-87
2023/10/01 09:01:11;;;;;;;17.05;7.13;;;16.50;99.90;;;;;;4936783;29;20501;-87
2023/10/01 09:03:47;;;;;;;15.45;6.63;;;16.70;99.90;;;;;;4936816;29;20058;-86
2023/10/01 09:06:27;;;;;;;14.57;7.00;;;16.70;99.90;;;;;;4935375;29;20047;-87
2023/10/01 09:08:59;;;;;;;13.95;6.32;;;16.70;99.90;;;;;;4937063;29;20055;-89
2023/10/01 09:11:42;;;;;;;15.93;6.60;;;16.70;99.90;;;;;;4936331;29;20055;-88
2023/10/01 09:14:17;;;;;;;14.65;6.88;;;16.80;99.90;;;;;;4934772;29;20047;-89
2023/10/01 09:16:57;;;;;;;16.70;6.50;;;17.00;99.90;;;;;;4936660;29;20123;-88
2023/10/01 09:19:31;;;;;;;13.55;6.35;;;16.90;99.90;;;;;;4937560;29;20058;-89
2023/10/01 09:22:04;;;;;;;;;;;17.10;99.90;;;;;;4949851;29;20054;-88
2023/10/01 09:24:41;;;;;;;16.63;6.50;;;17.10;99.90;;;;;;4939585;29;19923;-87
2023/10/01 09:27:09;;;;;;;16.90;6.35;;;17.10;99.90;;;;;;4941932;29;20035;-88
2023/10/01 09:29:43;;;;;;;19.58;6.70;;;17.20;99.90;;;;;;4937851;29;20129;-88
2023/10/01 09:32:11;;;;;;;15.27;6.97;;;17.30;99.90;;;;;;4939022;29;20093;-87
2023/10/01 09:34:46;;;;;;;16.25;6.50;;;17.40;99.90;;;;;;4939446;29;20082;-87
2023/10/01 09:37:35;;;;;;;16.15;6.93;;;17.50;99.90;;;;;;4940638;29;20046;-87
2023/10/01 09:40:32;;;;;;;15.48;6.93;;;17.40;99.90;;;;;;4972785;28;20058;-88
2023/10/01 09:43:04;;;;;;;16.77;6.88;;;17.50;99.90;;;;;;4941065;29;20691;-88
2023/10/01 09:45:37;;;;;;;17.23;7.60;;;17.60;99.90;;;;;;4938026;29;20054;-87
2023/10/01 09:48:23;;;;;;;16.63;7.28;;;17.70;99.90;;;;;;4937067;29;20056;-87
2023/10/01 09:50:54;;;;;;;17.92;6.60;;;17.60;99.90;;;;;;4941510;29;20047;-87
2023/10/01 09:53:32;;;;;;;16.65;6.85;;;17.70;99.90;;;;;;4938425;29;20043;-89
2023/10/01 09:55:59;;;;;;;14.02;6.10;;;17.70;99.90;;;;;;4939297;29;20094;-88
2023/10/01 09:58:25;;;;;;;16.70;6.57;;;17.70;99.90;;;;;;4939708;29;20225;-87
2023/10/01 10:01:00;;;;;;;16.77;7.03;;;17.80;99.90;;;;;;4940248;29;20459;-88
2023/10/01 10:03:37;;;;;;;14.55;6.55;;;18.10;99.90;;;;;;4971331;28;20086;-87
2023/10/01 10:06:06;;;;;;;18.20;6.80;;;18.00;99.90;;;;;;4939706;29;20051;-87
2023/10/01 10:08:41;;;;;;;16.90;6.68;;;18.10;99.90;;;;;;4938785;29;20134;-86
2023/10/01 10:11:23;;;;;;;17.15;6.95;;;18.20;99.90;;;;;;4937894;29;20184;-88
2023/10/01 10:13:57;;;;;;;16.17;6.93;;;18.40;99.90;;;;;;4941299;29;20039;-87
2023/10/01 10:16:32;;;;;;;17.08;6.68;;;18.20;99.90;;;;;;4937997;29;20074;-87
2023/10/01 10:22:19;;;;;;;16.90;6.80;;;18.40;99.90;;;;;;4955888;28;20051;-87
2023/10/01 10:25:18;;;;;;;17.25;7.00;;;18.50;99.90;;;;;;4970514;28;20088;-87
2023/10/01 10:27:49;;;;;;;15.27;6.70;;;18.40;99.90;;;;;;4961192;28;20407;-87
2023/10/01 10:30:15;;;;;;;17.60;7.32;;;18.50;99.90;;;;;;4938639;29;20050;-89
2023/10/01 10:33:16;;;;;;;16.38;6.95;;;18.50;99.90;;;;;;4970599;28;20051;-86
2023/10/01 10:35:49;;;;;;;17.20;6.80;;;18.50;99.90;;;;;;4937993;29;20043;-87
2023/10/01 10:38:51;;;;;;;15.27;7.43;;;18.60;99.90;;;;;;4955475;29;20135;-87
2023/10/01 10:41:17;;;;;;;18.42;7.03;;;18.90;99.90;;;;;;4929971;29;20389;-87
2023/10/01 10:44:23;;;;;;;18.35;7.43;;;18.90;99.90;;;;;;4937629;29;20475;-88
2023/10/01 10:51:43;;;;;;;16.08;7.00;;;19.10;99.90;;;;;;4887574;29;20095;-90
2023/10/01 10:54:00;;;;;;;18.05;6.82;;;19.20;99.90;;;;;;4946876;23;20047;-90
2023/10/01 10:57:06;;;;;;;19.27;7.05;;;19.30;99.90;;;;;;4947421;29;20059;-90
2023/10/01 10:59:47;;;;;;;17.58;6.75;;;19.40;99.90;;;;;;4861912;29;20095;-90
2023/10/01 11:02:42;;;;;;;16.58;6.90;;;19.60;99.90;;;;;;4862154;29;20048;-91
2023/10/01 11:05:30;;;;;;;17.05;7.22;;;19.80;99.90;;;;;;4860931;29;20049;-86
2023/10/01 11:08:59;;;;;;;16.13;6.70;;;20.10;99.90;;;;;;4862410;29;20049;-82
2023/10/01 11:11:10;;;;;;;17.80;7.40;;;20.00;99.90;;;;;;4936192;29;20047;-82
2023/10/01 11:14:11;;;;;;;16.92;7.10;;;20.30;99.90;;;;;;4934429;29;20059;-82
2023/10/01 11:16:42;;;;;;;16.92;6.72;;;20.40;99.90;;;;;;4937818;29;20054;-93
2023/10/01 11:19:20;;;;;;;17.75;7.43;;;20.50;99.90;;;;;;4953145;29;20518;-82
2023/10/01 11:21:58;;;;;;;15.48;6.65;;;20.60;99.90;;;;;;4937365;29;20464;-89
2023/10/01 11:24:39;;;;;;;15.60;6.82;;;20.70;99.90;;;;;;4953706;29;20043;-83
2023/10/01 11:27:22;;;;;;;16.95;7.28;;;20.70;99.90;;;;;;4952594;29;20058;-82
2023/10/01 11:30:20;;;;;;;15.90;6.55;;;20.70;99.90;;;;;;4936637;29;20054;-90
2023/10/01 11:33:12;;;;;;;16.95;6.97;;;20.60;99.90;;;;;;4909659;29;20083;-88
2023/10/01 11:36:09;;;;;;;16.05;6.53;;;20.90;99.90;;;;;;4934794;29;20074;-89
2023/10/01 11:38:44;;;;;;;16.02;6.70;;;21.10;99.90;;;;;;4935097;29;20051;-87
2023/10/01 11:41:38;;;;;;;17.00;7.05;;;21.20;99.90;;;;;;4937066;29;20130;-87
2023/10/01 11:44:05;;;;;;;13.93;6.93;;;21.20;99.90;;;;;;4936256;29;20078;-88
2023/10/01 11:46:34;;;;;;;16.02;7.25;;;21.40;99.90;;;;;;4937807;29;20051;-86
2023/10/01 11:49:28;;;;;;;16.83;6.80;;;21.40;99.90;;;;;;4936610;29;20054;-86
2023/10/01 11:52:12;;;;;;;15.32;6.25;;;21.30;99.90;;;;;;4937517;29;20078;-86
2023/10/01 11:54:43;;;;;;;;;;;21.30;99.90;;;;;;4930935;28;20407;-85
2023/10/01 12:00:19;;;;;;;17.00;6.50;;;21.20;99.90;;;;;;4891872;29;20456;-87
2023/10/01 12:02:45;;;;;;;18.02;6.72;;;21.10;99.90;;;;;;4928787;29;20043;-86
2023/10/01 12:05:13;;;;;;;17.08;6.90;;;21.20;99.90;;;;;;4933033;29;20051;-87
2023/10/01 12:07:58;;;;;;;18.17;6.50;;;21.20;99.90;;;;;;4933491;29;20054;-87
2023/10/01 12:10:42;;;;;;;16.65;6.63;;;21.30;99.90;;;;;;4969941;23;20055;-87
2023/10/01 12:13:13;;;;;;;15.70;6.32;;;21.30;99.90;;;;;;4939925;29;20046;-86
2023/10/01 12:15:53;;;;;;;15.50;7.00;;;21.30;99.90;;;;;;4971831;28;20595;-86
2023/10/01 12:18:36;;;;;;;13.85;5.80;;;21.40;99.90;;;;;;4933600;29;20047;-86
2023/10/01 12:21:25;;;;;;;16.45;6.20;;;21.50;99.90;;;;;;4939897;29;20475;-85
2023/10/01 12:24:28;;;;;;;14.00;5.95;;;21.60;99.90;;;;;;4951665;29;20124;-85
2023/10/01 12:27:37;;;;;;;14.90;6.28;;;21.40;99.90;;;;;;4941663;29;20059;-86
2023/10/01 12:30:57;;;;;;;15.98;6.22;;;21.60;99.90;;;;;;4965986;28;20047;-85
2023/10/01 12:33:21;;;;;;;15.30;6.45;;;21.60;99.90;;;;;;4962816;28;20094;-86
2023/10/01 12:35:46;;;;;;;16.20;6.45;;;21.70;99.90;;;;;;4940222;29;20047;-86
2023/10/01 12:38:24;;;;;;;15.63;6.25;;;21.70;99.90;;;;;;4939642;29;20054;-86
2023/10/01 12:40:56;;;;;;;15.00;5.90;;;21.80;99.90;;;;;;4972511;28;20410;-85
2023/10/01 12:43:36;;;;;;;15.05;6.30;;;21.80;99.90;;;;;;4939459;29;20054;-85
2023/10/01 12:46:08;;;;;;;15.30;6.63;;;21.90;99.90;;;;;;4940971;29;20043;-86
2023/10/01 12:48:35;;;;;;;18.67;6.82;;;21.90;99.90;;;;;;4940415;29;20051;-85
2023/10/01 12:51:10;;;;;;;17.23;6.18;;;22.00;99.90;;;;;;4957536;29;20090;-86
2023/10/01 12:53:53;;;;;;;16.35;5.70;;;22.00;99.90;;;;;;4957234;29;20491;-85
2023/10/01 12:56:35;;;;;;;14.93;5.65;;;22.20;99.90;;;;;;4933393;29;20415;-85
2023/10/01 12:59:20;;;;;;;16.35;6.40;;;22.30;99.90;;;;;;4937435;29;20043;-86
2023/10/01 13:01:51;;;;;;;14.25;5.57;;;22.40;99.90;;;;;;4936775;29;20055;-86
2023/10/01 13:04:32;;;;;;;15.13;5.40;;;22.60;99.90;;;;;;4937082;29;20130;-81
2023/10/01 13:07:03;;;;;;;14.07;5.60;;;22.60;99.90;;;;;;4965752;28;20043;-86
2023/10/01 13:09:57;;;;;;;14.35;5.70;;;22.50;99.90;;;;;;4938655;29;20090;-86
2023/10/01 13:12:25;;;;;;;13.63;5.40;;;22.70;99.90;;;;;;4956284;28;20059;-86
2023/10/01 13:17:43;;;;;;;13.82;5.28;;;22.60;99.90;;;;;;4957424;28;20062;-86
2023/10/01 13:21:10;;;;;;;;;;;22.90;99.90;;;;;;4989807;28;20047;-86
2023/10/01 13:23:24;;;;;;;12.82;4.85;;;22.90;99.90;;;;;;4950957;28;20050;-86
2023/10/01 13:26:05;;;;;;;;;;;23.10;99.90;;;;;;4962895;28;20043;-85
2023/10/01 13:28:45;;;;;;;14.95;5.07;;;23.00;99.90;;;;;;4938182;29;19929;-85
2023/10/01 14:09:50;;;;;;;13.45;4.68;;;23.50;99.90;;;;;;4937917;29;20052;-86
2023/10/01 14:15:05;;;;;;;15.57;4.70;;;23.60;99.90;;;;;;4918978;29;20087;-86
2023/10/01 14:17:32;;;;;;;12.70;5.25;;;23.50;99.90;;;;;;4919513;29;20543;-85
2023/10/01 14:19:58;;;;;;;13.32;5.13;;;23.40;99.90;;;;;;4957558;23;20059;-85
2023/10/01 14:22:24;;;;;;;13.02;5.10;;;23.20;99.90;;;;;;4956699;28;20085;-85
2023/10/01 14:24:55;;;;;;;12.02;4.65;;;23.20;99.90;;;;;;4957350;28;20480;-86
2023/10/01 14:27:33;;;;;;;10.88;4.55;;;23.20;99.90;;;;;;4956905;28;20133;-86
2023/10/01 14:30:23;;;;;;;12.35;4.63;;;23.00;99.90;;;;;;4954337;28;20074;-88
2023/10/01 14:32:51;;;;;;;11.57;4.63;;;22.90;99.90;;;;;;4957207;28;20050;-86
2023/10/01 14:35:17;;;;;;;11.93;5.03;;;22.70;99.90;;;;;;4956609;28;20486;-86
2023/10/01 14:37:55;;;;;;;12.18;4.88;;;22.60;99.90;;;;;;4973883;28;20105;-87
2023/10/01 14:40:27;;;;;;;13.48;5.20;;;22.50;99.90;;;;;;4956922;28;20049;-88
2023/10/01 14:42:59;;;;;;;13.65;4.78;;;22.50;99.90;;;;;;4955997;28;20051;-86
2023/10/01 14:45:42;;;;;;;11.95;4.80;;;22.30;99.90;;;;;;4955940;28;20232;-87
2023/10/01 14:48:08;;;;;;;15.88;5.60;;;22.40;99.90;;;;;;4989169;28;20145;-86
2023/10/01 14:50:39;;;;;;;14.20;4.82;;;22.30;99.90;;;;;;4987717;28;20129;-86
2023/10/01 14:53:10;;;;;;;12.82;4.75;;;22.30;99.90;;;;;;4955984;28;20053;-85
2023/10/01 14:55:42;;;;;;;12.27;5.00;;;22.30;99.90;;;;;;4956069;28;20406;-86
2023/10/01 14:58:15;;;;;;;11.43;4.32;;;22.30;99.90;;;;;;4985320;28;20526;-87
2023/10/01 15:00:52;;;;;;;11.68;4.38;;;22.30;99.90;;;;;;4956040;28;20053;-86
2023/10/01 15:03:34;;;;;;;12.52;4.95;;;22.20;99.90;;;;;;4988271;28;20137;-87
2023/10/01 15:06:03;;;;;;;13.48;4.88;;;22.20;99.90;;;;;;4950520;28;20483;-86
2023/10/01 15:08:30;;;;;;;12.45;5.00;;;22.20;99.90;;;;;;4973185;28;20138;-86
2023/10/01 15:11:11;;;;;;;12.43;5.00;;;22.20;99.90;;;;;;4955069;28;20074;-86
2023/10/01 15:13:40;;;;;;;12.10;4.82;;;22.20;99.90;;;;;;4979576;28;20055;-86
2023/10/01 15:16:12;;;;;;;11.73;5.00;;;22.20;99.90;;;;;;4970276;28;20066;-87
2023/10/01 15:19:01;;;;;;;14.23;5.07;;;22.20;99.90;;;;;;4964077;28;20105;-89
2023/10/01 15:21:53;;;;;;;13.93;5.32;;;22.20;99.90;;;;;;4975311;28;20509;-86
2023/10/01 15:24:28;;;;;;;13.43;4.78;;;22.10;99.90;;;;;;4955691;28;20051;-86
2023/10/01 15:26:58;;;;;;;13.20;5.15;;;22.10;99.90;;;;;;4988455;28;20039;-88
2023/10/01 15:32:17;;;;;;;14.13;5.47;;;22.10;99.90;;;;;;4957285;28;20146;-85
2023/10/01 15:34:57;;;;;;;14.07;5.72;;;22.20;99.90;;;;;;4956103;28;20042;-85
2023/10/01 15:37:29;;;;;;;15.20;6.65;;;22.20;99.90;;;;;;4988266;28;20494;-85
2023/10/01 15:40:23;;;;;;;14.45;6.88;;;22.20;99.90;;;;;;4970415;28;20089;-87
2023/10/01 15:43:05;;;;;;;14.50;5.97;;;22.50;99.90;;;;;;4970894;28;20134;-87
2023/10/01 15:45:43;;;;;;;12.27;5.65;;;22.80;99.90;;;;;;4969485;28;20499;-87
2023/10/01 15:48:09;;;;;;;14.65;5.63;;;23.00;99.90;;;;;;4940560;29;20093;-86
2023/10/01 15:50:38;;;;;;;12.88;5.50;;;23.10;99.90;;;;;;4973566;28;20047;-86
2023/10/01 15:53:21;;;;;;;13.43;5.47;;;23.20;99.90;;;;;;4973443;28;20047;-87
2023/10/01 15:55:58;;;;;;;13.82;5.22;;;23.00;99.90;;;;;;4941165;29;20043;-87
2023/10/01 15:58:25;;;;;;;13.77;5.95;;;22.70;99.90;;;;;;4941105;29;20059;-87
2023/10/01 16:00:59;;;;;;;15.13;5.53;;;22.40;99.90;;;;;;4972945;28;20179;-87
2023/10/01 16:03:31;;;;;;;12.73;5.63;;;22.20;99.90;;;;;;4942882;28;20524;-85
2023/10/01 16:06:12;;;;;;;15.43;5.43;;;22.10;99.90;;;;;;4957868;28;20042;-85
2023/10/01 16:08:42;;;;;;;15.10;6.00;;;21.80;99.90;;;;;;4957151;29;20047;-81
2023/10/01 16:11:09;;;;;;;13.57;5.75;;;21.70;99.90;;;;;;4972910;28;20051;-88
2023/10/01 16:13:37;;;;;;;12.77;5.80;;;21.60;99.90;;;;;;4959944;28;20041;-88